Time;durP1;ratioP1;P1;durP2;ratioP2;P2;SDS_P1;SDS_P2;PMS_P1;PMS_P2;Temp;Humidity;BMP_temperature;BMP_pressure;BME280_temperature;BME280_humidity;BME280_pressure;Samples;Min_cycle;Max_cycle;Signal;HPM_P1;HPM_P2
2023/06/06 00:00:16;;;;;;;6.03;3.80;;;;;;;11.92;79.52;96069.47;2088962;28;20056;-59
2023/06/06 00:01:17;;;;;;;5.15;2.88;;;;;;;11.91;79.38;96073.00;2097932;28;20053;-58
2023/06/06 00:02:19;;;;;;;5.35;3.25;;;;;;;11.93;79.96;96084.19;2098461;28;20037;-59
2023/06/06 00:03:21;;;;;;;5.45;3.47;;;;;;;11.92;80.13;96082.50;2097666;28;20079;-59
2023/06/06 00:04:22;;;;;;;5.10;3.83;;;;;;;11.95;79.91;96090.16;2097648;28;20056;-59
2023/06/06 00:05:25;;;;;;;5.78;3.30;;;;;;;11.90;79.78;96076.56;2098007;28;20061;-59
2023/06/06 00:06:32;;;;;;;7.00;3.40;;;;;;;11.92;79.98;96082.50;2097686;28;20055;-59
2023/06/06 00:07:35;;;;;;;6.15;3.70;;;;;;;11.87;79.81;96068.91;2088315;28;20060;-59
2023/06/06 00:08:36;;;;;;;5.20;3.67;;;;;;;11.97;79.13;96074.47;2089798;28;20440;-59
2023/06/06 00:09:37;;;;;;;5.53;3.50;;;;;;;11.93;79.06;96079.00;2097475;28;20052;-59
2023/06/06 00:10:38;;;;;;;5.30;3.75;;;;;;;11.95;78.89;96078.91;2097573;28;20056;-58
2023/06/06 00:11:44;;;;;;;5.22;3.80;;;;;;;11.92;79.38;96077.28;2097699;28;20383;-58
2023/06/06 00:12:46;;;;;;;6.03;3.63;;;;;;;11.88;79.14;96080.97;2097671;28;20083;-58
2023/06/06 00:13:50;;;;;;;4.20;3.17;;;;;;;11.87;79.39;96080.16;2098141;28;20491;-58
2023/06/06 00:14:51;;;;;;;5.60;3.80;;;;;;;11.88;80.03;96078.38;2097534;28;20440;-58
2023/06/06 00:15:57;;;;;;;4.72;3.53;;;;;;;11.84;79.67;96076.81;2097852;28;20053;-58
2023/06/06 00:17:00;;;;;;;6.35;3.78;;;;;;;11.77;79.46;96078.91;2097507;28;20060;-58
2023/06/06 00:18:02;;;;;;;4.53;3.75;;;;;;;11.74;80.31;96076.47;2097568;28;20101;-58
2023/06/06 00:19:03;;;;;;;4.90;3.45;;;;;;;11.70;80.53;96074.91;2097638;28;20052;-58
2023/06/06 00:20:07;;;;;;;4.78;3.22;;;;;;;11.66;80.86;96076.84;2097453;28;20055;-58
2023/06/06 00:21:09;;;;;;;6.18;3.70;;;;;;;11.63;81.16;96079.59;2097376;28;20047;-58
2023/06/06 00:22:10;;;;;;;6.65;3.67;;;;;;;11.59;81.32;96075.44;2097449;28;20365;-58
2023/06/06 00:23:12;;;;;;;5.03;3.65;;;;;;;11.55;80.58;96076.53;2097067;28;20053;-58
2023/06/06 00:24:15;;;;;;;5.30;3.90;;;;;;;11.58;81.43;96075.53;2097796;28;20052;-58
2023/06/06 00:25:16;;;;;;;5.50;3.53;;;;;;;11.67;80.79;96080.28;2097636;28;20048;-58
2023/06/06 00:26:17;;;;;;;4.95;3.42;;;;;;;11.62;81.23;96075.28;2097182;28;20117;-58
2023/06/06 00:27:21;;;;;;;6.13;3.92;;;;;;;11.63;80.78;96071.78;2097476;28;20460;-58
2023/06/06 00:28:22;;;;;;;7.18;3.47;;;;;;;11.62;81.33;96071.84;2097398;28;20056;-58
2023/06/06 00:29:23;;;;;;;5.05;3.70;;;;;;;11.59;80.77;96075.44;2097611;28;20056;-58
2023/06/06 00:30:24;;;;;;;4.72;3.58;;;;;;;11.55;80.83;96068.72;2087690;28;20529;-58
2023/06/06 00:31:25;;;;;;;4.28;3.30;;;;;;;11.55;81.51;96073.94;2088850;28;20068;-58
2023/06/06 00:32:26;;;;;;;5.55;3.28;;;;;;;11.51;81.72;96072.38;2096935;28;20052;-58
2023/06/06 00:33:28;;;;;;;5.53;3.90;;;;;;;11.51;81.10;96072.38;2097338;28;20056;-58
2023/06/06 00:34:29;;;;;;;5.68;3.78;;;;;;;11.47;81.82;96070.88;2097262;28;20097;-58
2023/06/06 00:35:30;;;;;;;4.70;3.40;;;;;;;11.41;81.17;96058.16;2088507;28;20068;-58
2023/06/06 00:36:31;;;;;;;5.45;3.33;;;;;;;11.44;81.30;96060.59;2081029;28;20056;-58
2023/06/06 00:37:32;;;;;;;5.95;3.45;;;;;;;11.45;82.14;96068.34;2088582;28;20532;-58
2023/06/06 00:38:33;;;;;;;4.80;3.42;;;;;;;11.45;82.16;96070.94;2088292;28;20057;-58
2023/06/06 00:39:34;;;;;;;4.40;3.47;;;;;;;11.44;81.84;96069.25;2089186;28;20125;-58
2023/06/06 00:40:35;;;;;;;5.18;3.63;;;;;;;11.51;81.77;96058.56;2088990;28;20485;-58
2023/06/06 00:41:36;;;;;;;5.18;3.78;;;;;;;11.45;81.08;96072.69;2081121;28;20053;-58
2023/06/06 00:42:38;;;;;;;6.50;4.07;;;;;;;11.40;81.90;96067.72;2081120;28;20056;-58
2023/06/06 00:43:39;;;;;;;4.78;3.75;;;;;;;11.36;81.76;96070.53;2080656;28;20050;-58
2023/06/06 00:44:40;;;;;;;5.38;3.83;;;;;;;11.31;82.01;96068.19;2081102;28;20102;-58
2023/06/06 00:45:41;;;;;;;5.72;3.60;;;;;;;11.24;82.55;96066.78;2088826;28;20056;-59
2023/06/06 00:46:43;;;;;;;5.03;3.70;;;;;;;11.20;82.51;96063.50;2097391;28;20056;-58
2023/06/06 00:47:44;;;;;;;5.43;3.97;;;;;;;11.21;82.81;96069.53;2089175;28;20045;-59
2023/06/06 00:48:45;;;;;;;4.40;3.60;;;;;;;11.14;83.04;96058.59;2088521;28;20048;-58
2023/06/06 00:49:47;;;;;;;5.45;3.90;;;;;;;11.19;82.36;96069.59;2079953;28;20584;-58
2023/06/06 00:50:48;;;;;;;5.10;3.67;;;;;;;10.99;82.49;96038.56;2073008;28;20046;-58
2023/06/06 00:51:49;;;;;;;6.65;4.18;;;;;;;11.11;82.66;96065.69;2072865;28;20430;-60
2023/06/06 00:52:51;;;;;;;4.80;3.95;;;;;;;11.06;82.50;96060.72;2072472;28;20057;-60
2023/06/06 00:53:52;;;;;;;5.20;3.80;;;;;;;11.04;83.49;96062.56;2080526;28;20057;-60
2023/06/06 00:54:53;;;;;;;5.20;4.25;;;;;;;10.95;82.96;96055.19;2072523;28;20450;-60
2023/06/06 00:55:55;;;;;;;6.15;3.67;;;;;;;10.96;83.65;96060.34;2080548;28;20057;-60
2023/06/06 00:56:56;;;;;;;5.55;3.90;;;;;;;10.84;83.53;96047.06;2089165;28;20060;-59
2023/06/06 00:57:59;;;;;;;5.68;3.63;;;;;;;10.90;84.28;96062.38;2072546;28;20389;-60
2023/06/06 00:59:01;;;;;;;7.22;4.28;;;;;;;10.89;84.29;96063.28;2072547;28;20046;-60
2023/06/06 01:00:05;;;;;;;5.20;3.97;;;;;;;10.78;84.44;96050.81;2080476;28;20441;-60
2023/06/06 01:01:07;;;;;;;5.70;4.05;;;;;;;10.85;84.43;96064.34;2089763;28;20041;-60
2023/06/06 01:02:09;;;;;;;6.82;4.90;;;;;;;10.88;84.50;96069.38;2089329;28;20064;-58
2023/06/06 01:03:10;;;;;;;6.00;4.32;;;;;;;10.85;84.20;96069.53;2080532;28;20052;-58
2023/06/06 01:04:12;;;;;;;5.45;4.10;;;;;;;10.83;84.18;96061.81;2064931;28;20438;-58
2023/06/06 01:05:15;;;;;;;5.88;4.40;;;;;;;10.81;84.76;96069.69;2064129;28;20061;-58
2023/06/06 01:06:16;;;;;;;6.32;4.30;;;;;;;10.79;84.29;96062.88;2089363;28;20044;-58
2023/06/06 01:07:17;;;;;;;5.90;4.00;;;;;;;10.74;84.93;96057.88;2097168;28;20067;-58
2023/06/06 01:08:21;;;;;;;7.70;4.50;;;;;;;10.65;85.11;96053.13;2097935;28;20048;-58
2023/06/06 01:09:22;;;;;;;5.47;3.92;;;;;;;10.73;84.79;96068.38;2097305;28;20048;-58
2023/06/06 01:10:24;;;;;;;6.38;4.55;;;;;;;10.74;85.21;96065.69;2097358;28;20056;-58
2023/06/06 01:11:30;;;;;;;5.85;4.18;;;;;;;10.80;84.35;96061.97;2088516;28;20049;-58
2023/06/06 01:12:37;;;;;;;5.63;3.90;;;;;;;10.84;84.49;96066.09;2080810;28;20125;-58
2023/06/06 01:13:44;;;;;;;5.78;4.10;;;;;;;10.79;84.12;96071.50;2089453;28;20063;-58
2023/06/06 01:15:06;;;;;;;6.90;4.13;;;;;;;10.74;84.06;96070.88;2089280;28;20053;-58
2023/06/06 01:16:09;;;;;;;4.50;3.60;;;;;;;10.75;84.38;96072.56;2083853;28;20045;-58
2023/06/06 01:17:10;;;;;;;4.85;3.95;;;;;;;10.67;85.04;96053.06;2081284;28;20037;-56
2023/06/06 01:18:12;;;;;;;5.93;4.00;;;;;;;10.65;85.12;96055.72;2072456;28;20057;-56
2023/06/06 01:19:17;;;;;;;5.90;4.28;;;;;;;10.73;84.57;96068.38;2081128;28;20057;-56
2023/06/06 01:20:18;;;;;;;6.68;4.03;;;;;;;10.73;84.77;96071.78;2080208;28;20053;-57
2023/06/06 01:21:19;;;;;;;7.32;4.38;;;;;;;10.68;84.96;96070.34;2088280;28;20060;-57
2023/06/06 01:22:22;;;;;;;5.85;4.07;;;;;;;10.64;84.72;96059.25;2080322;28;20505;-56
2023/06/06 01:23:23;;;;;;;5.65;4.30;;;;;;;10.72;84.35;96071.84;2080964;28;20413;-57
2023/06/06 01:24:26;;;;;;;5.13;3.72;;;;;;;10.64;85.00;96060.97;2072736;28;20402;-57
2023/06/06 01:25:27;;;;;;;6.15;4.28;;;;;;;10.73;85.01;96070.97;2072634;28;20104;-57
2023/06/06 01:26:28;;;;;;;7.05;4.30;;;;;;;10.73;84.98;96071.78;2088202;28;20060;-56
2023/06/06 01:27:33;;;;;;;6.30;4.05;;;;;;;10.70;83.98;96063.31;2088576;28;20056;-58
2023/06/06 01:28:34;;;;;;;4.93;3.80;;;;;;;10.75;84.69;96072.56;2080628;28;20137;-59
2023/06/06 01:29:35;;;;;;;6.80;4.35;;;;;;;10.79;84.33;96076.69;2080448;28;20072;-59
2023/06/06 01:30:36;;;;;;;8.18;4.00;;;;;;;10.76;83.77;96074.25;2088371;28;20075;-59
2023/06/06 01:31:41;;;;;;;7.95;4.25;;;;;;;10.75;84.17;96074.34;2088726;28;20063;-59
2023/06/06 01:33:08;;;;;;;7.10;4.28;;;;;;;10.87;83.66;96075.50;2088522;28;20053;-59
2023/06/06 01:34:40;;;;;;;5.80;4.07;;;;;;;10.79;83.70;96058.50;2092617;28;20044;-58
2023/06/06 01:36:06;;;;;;;6.88;4.53;;;;;;;10.93;83.56;96081.28;2063775;28;20047;-59
2023/06/06 01:37:11;;;;;;;6.75;4.75;;;;;;;11.02;81.94;96074.78;2080802;28;20046;-59
2023/06/06 01:38:25;;;;;;;6.05;4.20;;;;;;;10.93;82.19;96076.06;2097219;28;20421;-59
2023/06/06 01:39:26;;;;;;;6.28;4.57;;;;;;;10.87;82.25;96075.50;2088672;28;20380;-59
2023/06/06 01:40:29;;;;;;;6.30;4.57;;;;;;;10.85;82.65;96072.13;2072930;28;20046;-59
2023/06/06 01:41:30;;;;;;;6.65;4.65;;;;;;;10.94;83.01;96074.31;2073677;28;20054;-59
2023/06/06 01:42:33;;;;;;;6.43;4.28;;;;;;;10.88;83.01;96075.44;2082225;28;20120;-59
2023/06/06 01:43:34;;;;;;;6.07;3.95;;;;;;;10.85;82.84;96070.38;2081890;28;20468;-58
2023/06/06 01:44:35;;;;;;;5.82;3.78;;;;;;;10.80;82.25;96070.59;2081523;28;20064;-59
2023/06/06 01:45:37;;;;;;;5.43;4.07;;;;;;;10.73;83.30;96055.38;2089820;28;20109;-59
2023/06/06 01:46:38;;;;;;;8.10;4.30;;;;;;;10.80;82.72;96073.22;2081965;28;20112;-59
2023/06/06 01:47:39;;;;;;;6.10;4.45;;;;;;;10.75;83.12;96076.94;2066031;28;20050;-59
2023/06/06 01:48:40;;;;;;;8.98;4.88;;;;;;;10.67;82.57;96077.28;2066146;28;20061;-59
2023/06/06 01:49:44;;;;;;;6.25;4.60;;;;;;;10.58;83.12;96069.91;2074719;28;20050;-58
2023/06/06 01:50:46;;;;;;;5.93;4.28;;;;;;;10.57;83.70;96074.25;2074164;28;20058;-59
2023/06/06 01:51:47;;;;;;;7.70;4.45;;;;;;;10.50;83.36;96066.81;2074072;28;20529;-59
2023/06/06 01:52:48;;;;;;;6.47;4.15;;;;;;;10.44;83.99;96067.09;2090213;28;20057;-59
2023/06/06 01:53:49;;;;;;;7.18;4.20;;;;;;;10.48;84.04;96076.44;2098580;28;20053;-59
2023/06/06 01:54:52;;;;;;;6.85;4.63;;;;;;;10.48;84.19;96077.28;2090312;28;20071;-58
2023/06/06 01:55:54;;;;;;;7.40;4.75;;;;;;;10.49;83.85;96084.16;2089872;28;20052;-59
2023/06/06 01:56:56;;;;;;;5.80;4.00;;;;;;;10.44;84.47;96080.09;2089800;28;20079;-58
2023/06/06 01:57:57;;;;;;;6.80;4.40;;;;;;;10.41;83.89;96083.66;2082045;28;20068;-58
2023/06/06 01:58:58;;;;;;;6.18;4.82;;;;;;;10.37;84.68;96082.09;2081709;28;20052;-58
2023/06/06 02:00:00;;;;;;;5.82;4.50;;;;;;;10.27;84.22;96073.91;2081887;28;20049;-58
2023/06/06 02:01:02;;;;;;;7.85;5.20;;;;;;;10.29;84.77;96077.28;2081804;28;20469;-58
2023/06/06 02:02:04;;;;;;;6.95;4.75;;;;;;;10.28;84.41;96082.53;2089777;28;20080;-58
2023/06/06 02:03:05;;;;;;;7.18;4.68;;;;;;;10.23;85.33;96074.91;2098431;28;20449;-58
2023/06/06 02:04:06;;;;;;;5.35;4.45;;;;;;;10.19;85.31;96083.75;2098512;28;20052;-58
2023/06/06 02:05:07;;;;;;;6.30;4.85;;;;;;;10.16;85.42;96073.50;2098932;28;20049;-58
2023/06/06 02:06:08;;;;;;;6.00;4.45;;;;;;;10.12;84.94;96082.31;2099075;28;20049;-58
2023/06/06 02:07:11;;;;;;;7.00;4.75;;;;;;;10.09;85.88;96083.31;2099163;28;20044;-58
2023/06/06 02:08:12;;;;;;;5.82;4.60;;;;;;;10.12;85.57;96084.91;2089836;28;20053;-58
2023/06/06 02:09:13;;;;;;;8.25;4.80;;;;;;;10.08;86.03;96075.59;2081903;28;20073;-58
2023/06/06 02:10:15;;;;;;;7.13;5.03;;;;;;;10.06;85.55;96077.41;2090060;28;20053;-58
2023/06/06 02:11:16;;;;;;;7.03;5.20;;;;;;;10.05;85.83;96084.38;2098633;28;20052;-58
2023/06/06 02:12:17;;;;;;;8.52;5.18;;;;;;;10.02;86.37;96081.88;2098291;28;20061;-58
2023/06/06 02:13:18;;;;;;;8.50;5.05;;;;;;;9.99;86.51;96087.19;2099066;28;20147;-58
2023/06/06 02:14:19;;;;;;;7.70;4.85;;;;;;;10.00;86.06;96083.72;2090217;28;20436;-58
2023/06/06 02:15:21;;;;;;;6.40;4.57;;;;;;;9.99;87.04;96086.38;2090397;28;20473;-58
2023/06/06 02:16:22;;;;;;;6.40;4.68;;;;;;;9.95;86.23;96083.06;2089750;28;20107;-58
2023/06/06 02:17:23;;;;;;;7.05;5.55;;;;;;;9.96;87.01;96086.50;2089468;28;20138;-58
2023/06/06 02:18:27;;;;;;;6.97;4.95;;;;;;;9.94;86.61;96083.97;2089693;28;20049;-58
2023/06/06 02:19:28;;;;;;;7.25;4.60;;;;;;;9.92;87.01;96081.44;2089806;28;20076;-58
2023/06/06 02:20:29;;;;;;;7.40;5.07;;;;;;;9.93;87.00;96077.94;2089964;28;20495;-58
2023/06/06 02:21:30;;;;;;;7.10;4.68;;;;;;;9.97;87.50;96085.59;2090011;28;20063;-58
2023/06/06 02:22:31;;;;;;;6.32;4.78;;;;;;;9.97;87.82;96091.63;2098373;28;20063;-58
2023/06/06 02:23:32;;;;;;;8.57;5.28;;;;;;;10.01;87.91;96082.78;2098859;28;20065;-57
2023/06/06 02:24:34;;;;;;;7.25;5.43;;;;;;;10.01;87.20;96082.78;2089654;28;20052;-58
2023/06/06 02:25:37;;;;;;;8.85;5.15;;;;;;;10.02;87.61;96084.47;2090005;28;20390;-58
2023/06/06 02:26:40;;;;;;;6.68;5.40;;;;;;;10.11;87.42;96086.69;2098092;28;20049;-58
2023/06/06 02:27:47;;;;;;;7.15;5.32;;;;;;;10.10;87.67;96085.00;2099026;28;20053;-58
2023/06/06 02:28:48;;;;;;;8.07;5.70;;;;;;;10.11;87.43;96081.50;2089534;28;20484;-58
2023/06/06 02:29:49;;;;;;;7.80;5.35;;;;;;;10.11;87.42;96083.25;2090002;28;20056;-58
2023/06/06 02:30:51;;;;;;;9.27;5.60;;;;;;;10.11;87.19;96083.25;2099451;28;20119;-58
2023/06/06 02:31:53;;;;;;;7.63;5.53;;;;;;;10.11;87.30;96080.66;2098286;28;20385;-58
2023/06/06 02:32:56;;;;;;;7.15;5.50;;;;;;;10.14;87.00;96080.50;2098438;28;20055;-58
2023/06/06 02:33:57;;;;;;;7.15;4.88;;;;;;;10.20;87.11;96080.22;2098061;28;20052;-58
2023/06/06 02:34:59;;;;;;;8.55;5.93;;;;;;;10.16;87.43;96089.91;2090123;28;20045;-58
2023/06/06 02:36:00;;;;;;;8.57;6.22;;;;;;;10.13;87.26;96089.19;2081513;28;20056;-58
2023/06/06 02:37:06;;;;;;;9.00;5.85;;;;;;;10.07;87.33;96089.47;2081596;28;20049;-58
2023/06/06 02:38:07;;;;;;;8.95;5.78;;;;;;;10.06;87.62;96086.03;2082491;28;20512;-58
2023/06/06 02:39:08;;;;;;;8.20;5.93;;;;;;;10.05;87.92;96093.88;2081312;28;20045;-58
2023/06/06 02:40:10;;;;;;;7.82;5.50;;;;;;;10.03;87.94;96095.72;2090334;28;20097;-58
2023/06/06 02:41:12;;;;;;;8.60;5.97;;;;;;;9.93;87.65;96082.28;2090088;28;20044;-58
2023/06/06 02:42:14;;;;;;;8.20;5.95;;;;;;;10.02;88.15;96097.44;2081243;28;20053;-58
2023/06/06 02:43:15;;;;;;;6.82;5.80;;;;;;;10.01;87.77;96097.53;2081469;28;20405;-58
2023/06/06 02:44:17;;;;;;;8.02;6.25;;;;;;;9.99;87.96;96099.34;2081120;28;20061;-57
2023/06/06 02:45:21;;;;;;;7.75;6.13;;;;;;;9.96;88.42;96102.91;2081763;28;20057;-58
2023/06/06 02:46:22;;;;;;;10.25;6.13;;;;;;;9.92;88.01;96094.44;2089526;28;20416;-58
2023/06/06 02:47:23;;;;;;;8.25;6.03;;;;;;;9.90;88.77;96101.41;2081286;28;20064;-58
2023/06/06 02:48:24;;;;;;;6.60;5.80;;;;;;;9.88;88.56;96108.41;2090046;28;20044;-58
2023/06/06 02:49:27;;;;;;;7.55;5.80;;;;;;;9.79;88.78;96089.84;2089265;28;20049;-58
2023/06/06 02:50:28;;;;;;;7.38;5.75;;;;;;;9.89;88.84;96104.06;2089632;28;20523;-58
2023/06/06 02:51:30;;;;;;;8.85;6.40;;;;;;;9.92;88.92;96107.41;2089830;28;20508;-58
2023/06/06 02:52:35;;;;;;;10.63;6.30;;;;;;;9.92;89.24;96101.38;2089408;28;20053;-58
2023/06/06 02:53:40;;;;;;;8.05;6.28;;;;;;;9.91;88.68;96110.03;2088933;28;20067;-58
2023/06/06 02:54:41;;;;;;;10.45;6.07;;;;;;;9.85;88.68;96105.97;2090546;28;20048;-58
2023/06/06 02:55:43;;;;;;;8.13;5.40;;;;;;;9.75;88.67;96093.44;2089694;28;20076;-58
2023/06/06 02:56:44;;;;;;;9.10;6.32;;;;;;;9.81;88.93;96111.34;2090040;28;20044;-58
2023/06/06 02:57:45;;;;;;;6.13;5.15;;;;;;;9.79;89.31;96101.03;2089321;28;20063;-58
2023/06/06 02:58:47;;;;;;;9.38;6.25;;;;;;;9.79;89.69;96108.00;2081290;28;20408;-58
2023/06/06 02:59:48;;;;;;;8.80;6.03;;;;;;;9.70;89.65;96097.09;2089693;28;20041;-57
2023/06/06 03:00:49;;;;;;;8.20;6.70;;;;;;;9.77;89.70;96107.19;2081452;28;20053;-58
2023/06/06 03:01:50;;;;;;;9.48;6.45;;;;;;;9.77;89.69;96117.56;2089332;28;20068;-58
2023/06/06 03:02:51;;;;;;;10.70;6.25;;;;;;;9.74;89.39;96113.34;2089158;28;20068;-59
2023/06/06 03:03:52;;;;;;;9.07;6.28;;;;;;;9.71;89.77;96111.72;2081643;28;20077;-58
2023/06/06 03:04:55;;;;;;;7.88;5.82;;;;;;;9.69;89.39;96115.28;2088836;28;20064;-58
2023/06/06 03:05:58;;;;;;;10.88;6.65;;;;;;;9.67;89.49;96117.09;2089810;28;20048;-58
2023/06/06 03:07:00;;;;;;;8.68;6.22;;;;;;;9.64;89.96;96128.44;2089885;28;20068;-58
2023/06/06 03:08:02;;;;;;;7.95;5.85;;;;;;;9.59;90.03;96117.41;2098173;28;20072;-58
2023/06/06 03:09:04;;;;;;;9.75;6.40;;;;;;;9.60;90.02;96126.06;2098245;28;20393;-58
2023/06/06 03:10:06;;;;;;;9.43;6.72;;;;;;;9.62;90.69;96124.22;2089118;28;20480;-58
2023/06/06 03:11:12;;;;;;;8.10;6.60;;;;;;;9.60;90.43;96115.69;2081842;28;20338;-58
2023/06/06 03:12:13;;;;;;;10.35;6.97;;;;;;;9.64;90.85;96122.41;2080981;28;20067;-58
2023/06/06 03:13:15;;;;;;;9.60;7.13;;;;;;;9.62;90.30;96119.91;2081036;28;20060;-58
2023/06/06 03:14:16;;;;;;;9.25;7.13;;;;;;;9.58;90.42;96117.50;2081326;28;20061;-58
2023/06/06 03:15:18;;;;;;;7.82;6.72;;;;;;;9.58;90.62;96123.53;2081513;28;20048;-58
2023/06/06 03:16:26;;;;;;;11.45;7.15;;;;;;;9.56;90.48;96124.50;2081916;28;20045;-58
2023/06/06 03:17:27;;;;;;;10.20;7.22;;;;;;;9.53;90.55;96124.63;2073770;28;20054;-58
2023/06/06 03:18:28;;;;;;;8.70;6.40;;;;;;;9.49;91.35;96124.75;2080946;28;20060;-58
2023/06/06 03:19:35;;;;;;;9.52;7.30;;;;;;;9.55;91.08;96125.41;2081580;28;20045;-58
2023/06/06 03:20:39;;;;;;;8.70;7.18;;;;;;;9.52;90.78;96122.94;2081949;28;20068;-57
2023/06/06 03:21:45;;;;;;;9.98;7.50;;;;;;;9.41;90.97;96116.44;2082151;28;20045;-58
2023/06/06 03:22:46;;;;;;;9.93;7.50;;;;;;;9.45;90.96;96128.34;2081200;28;20355;-58
2023/06/06 03:23:48;;;;;;;8.60;7.28;;;;;;;9.32;91.47;96103.84;2072925;28;20421;-57
2023/06/06 03:24:49;;;;;;;10.52;7.53;;;;;;;9.42;91.44;96125.06;2073158;28;20422;-58
2023/06/06 03:25:51;;;;;;;10.65;7.55;;;;;;;9.40;91.49;96132.03;2080692;28;20049;-58
2023/06/06 03:26:53;;;;;;;12.07;7.95;;;;;;;9.38;91.30;96121.75;2081046;28;20084;-62
2023/06/06 03:27:55;;;;;;;9.00;7.32;;;;;;;9.37;91.86;96122.63;2080696;28;20045;-62
2023/06/06 03:28:56;;;;;;;10.57;8.00;;;;;;;9.38;91.91;96128.66;2080808;28;20049;-62
2023/06/06 03:30:02;;;;;;;10.38;8.00;;;;;;;9.26;91.80;96112.72;2081030;28;20053;-62
2023/06/06 03:31:05;;;;;;;10.55;8.23;;;;;;;9.37;91.88;96127.00;2089329;28;20041;-62
2023/06/06 03:32:12;;;;;;;10.27;8.43;;;;;;;9.35;92.10;96128.78;2081797;28;20065;-62
2023/06/06 03:33:14;;;;;;;10.43;7.43;;;;;;;9.33;91.98;96123.69;2081176;28;20100;-62
2023/06/06 03:34:17;;;;;;;10.65;7.03;;;;;;;9.27;92.15;96118.72;2080942;28;20057;-62
2023/06/06 03:35:19;;;;;;;10.68;7.63;;;;;;;9.33;92.68;96123.69;2080999;28;20057;-62
2023/06/06 03:36:20;;;;;;;9.45;7.18;;;;;;;9.32;92.74;96131.50;2081286;28;20469;-62
2023/06/06 03:37:22;;;;;;;8.68;6.72;;;;;;;9.32;92.72;96134.94;2080577;28;20133;-62
2023/06/06 03:38:23;;;;;;;11.70;7.70;;;;;;;9.26;92.99;96127.41;2081201;28;20485;-62
2023/06/06 03:39:25;;;;;;;10.00;7.57;;;;;;;9.31;93.05;96132.44;2089237;28;20087;-62
2023/06/06 03:40:26;;;;;;;9.15;7.30;;;;;;;9.31;93.39;96137.63;2097074;28;20053;-62
2023/06/06 03:41:27;;;;;;;8.65;6.97;;;;;;;9.31;93.23;96135.84;2097873;28;20100;-62
2023/06/06 03:42:28;;;;;;;9.05;7.18;;;;;;;9.32;92.98;96129.75;2089367;28;20052;-62
2023/06/06 03:43:30;;;;;;;10.05;7.05;;;;;;;9.33;93.22;96128.00;2080657;28;20453;-62
2023/06/06 03:44:32;;;;;;;9.18;7.22;;;;;;;9.35;93.64;96132.22;2088745;28;20057;-62
2023/06/06 03:45:33;;;;;;;10.57;7.55;;;;;;;9.37;93.38;96140.78;2081574;28;20474;-62
2023/06/06 03:46:34;;;;;;;10.93;7.82;;;;;;;9.37;93.50;96137.34;2080867;28;20049;-62
2023/06/06 03:47:36;;;;;;;8.90;7.18;;;;;;;9.39;93.90;96132.97;2088815;28;20104;-62
2023/06/06 03:48:37;;;;;;;9.02;7.30;;;;;;;9.32;93.40;96115.97;2081300;28;20460;-62
2023/06/06 03:49:38;;;;;;;10.20;7.50;;;;;;;9.43;93.98;96135.34;2089070;28;20057;-62
2023/06/06 03:50:39;;;;;;;11.18;7.00;;;;;;;9.36;93.50;96128.75;2098390;28;20049;-62
2023/06/06 03:51:43;;;;;;;12.30;7.72;;;;;;;9.48;93.81;96142.94;2088851;28;20053;-62
2023/06/06 03:52:44;;;;;;;12.63;7.43;;;;;;;9.49;93.82;96132.53;2088741;28;20056;-62
2023/06/06 03:53:45;;;;;;;11.15;7.93;;;;;;;9.53;93.84;96135.00;2089238;28;20049;-62
2023/06/06 03:54:47;;;;;;;13.00;8.38;;;;;;;9.53;94.15;96135.81;2081161;28;20053;-62
2023/06/06 03:55:48;;;;;;;12.15;8.25;;;;;;;9.56;93.76;96140.03;2088792;28;20060;-62
2023/06/06 03:56:50;;;;;;;9.43;7.32;;;;;;;9.54;93.82;96131.47;2097639;28;20508;-59
2023/06/06 03:57:53;;;;;;;12.40;7.32;;;;;;;9.56;93.40;96132.25;2098244;28;20041;-59
2023/06/06 03:58:54;;;;;;;9.73;7.70;;;;;;;9.58;93.90;96135.66;2089476;28;20048;-59
2023/06/06 03:59:55;;;;;;;10.07;6.93;;;;;;;9.58;93.65;96133.88;2080607;28;20057;-59
2023/06/06 04:01:01;;;;;;;12.20;7.50;;;;;;;9.60;93.81;96133.84;2081174;28;20045;-59
2023/06/06 04:02:02;;;;;;;12.30;7.90;;;;;;;9.63;93.48;96139.72;2081258;28;20128;-57
2023/06/06 04:03:04;;;;;;;10.60;7.60;;;;;;;9.65;93.80;96134.47;2080999;28;20047;-57
2023/06/06 04:04:06;;;;;;;10.63;7.72;;;;;;;9.67;93.40;96133.50;2080340;28;20045;-57
2023/06/06 04:05:07;;;;;;;10.82;8.07;;;;;;;9.62;93.32;96119.03;2072018;28;20050;-58
2023/06/06 04:06:09;;;;;;;9.05;7.13;;;;;;;9.72;93.25;96133.31;2065245;28;20050;-58
2023/06/06 04:07:12;;;;;;;9.75;6.97;;;;;;;9.74;93.49;96133.25;2073680;28;20054;-57
2023/06/06 04:08:14;;;;;;;10.80;6.80;;;;;;;9.76;93.15;96137.47;2081212;28;20050;-58
2023/06/06 04:09:16;;;;;;;13.10;6.93;;;;;;;9.78;92.69;96138.25;2089179;28;20384;-57
2023/06/06 04:10:19;;;;;;;8.80;7.18;;;;;;;9.83;92.31;96131.13;2080543;28;20430;-57
2023/06/06 04:11:21;;;;;;;13.93;7.22;;;;;;;9.82;92.49;96126.00;2080772;28;20179;-57
2023/06/06 04:12:22;;;;;;;10.07;7.25;;;;;;;9.89;91.90;96135.19;2072912;28;20076;-57
2023/06/06 04:13:23;;;;;;;10.30;7.60;;;;;;;9.96;92.07;96146.16;2064837;28;20058;-57
2023/06/06 04:14:25;;;;;;;8.73;6.70;;;;;;;9.99;92.62;96139.09;2072937;28;20053;-57
2023/06/06 04:15:26;;;;;;;9.00;6.97;;;;;;;10.05;92.42;96141.44;2080654;28;20377;-57
2023/06/06 04:16:27;;;;;;;11.80;6.78;;;;;;;10.10;92.25;96136.91;2089467;28;20045;-58
2023/06/06 04:17:28;;;;;;;10.80;6.60;;;;;;;10.22;91.20;96148.50;2088896;28;20065;-59
2023/06/06 04:18:29;;;;;;;12.07;7.47;;;;;;;10.29;91.28;96144.75;2088601;28;20060;-59
2023/06/06 04:19:32;;;;;;;13.00;7.35;;;;;;;10.36;91.09;96148.75;2088896;28;20059;-58
2023/06/06 04:20:33;;;;;;;9.50;6.70;;;;;;;10.46;90.26;96145.78;2080928;28;20429;-59
2023/06/06 04:21:34;;;;;;;10.80;6.88;;;;;;;10.55;89.41;96153.13;2088810;28;20052;-58
2023/06/06 04:22:36;;;;;;;11.65;6.82;;;;;;;10.54;89.39;96135.88;2097717;28;20063;-58
2023/06/06 04:23:37;;;;;;;8.57;6.68;;;;;;;10.72;87.23;96152.38;2080207;28;20080;-58
2023/06/06 04:24:38;;;;;;;7.95;5.82;;;;;;;10.81;87.65;96147.63;2072736;28;20061;-59
2023/06/06 04:25:41;;;;;;;8.38;6.50;;;;;;;10.93;86.05;96150.56;2088560;28;20056;-58
2023/06/06 04:26:42;;;;;;;8.27;6.45;;;;;;;11.02;85.96;96143.19;2088852;28;20056;-59
2023/06/06 04:27:44;;;;;;;8.25;6.25;;;;;;;11.15;85.15;96147.81;2089320;28;20465;-58
2023/06/06 04:28:48;;;;;;;9.48;6.57;;;;;;;11.22;84.99;96149.19;2081186;28;20072;-59
2023/06/06 04:29:51;;;;;;;8.27;5.53;;;;;;;11.29;84.98;96147.16;2080572;28;20080;-58
2023/06/06 04:30:52;;;;;;;9.55;5.63;;;;;;;11.38;83.46;96144.94;2080750;28;20056;-58
2023/06/06 04:31:54;;;;;;;8.45;5.93;;;;;;;11.41;82.21;96136.16;2088444;28;20052;-62
2023/06/06 04:32:56;;;;;;;9.13;6.28;;;;;;;11.43;81.97;96131.75;2097504;28;20041;-62
2023/06/06 04:34:00;;;;;;;9.00;6.40;;;;;;;11.57;81.67;96154.47;2096960;28;20055;-62
2023/06/06 04:35:02;;;;;;;8.60;6.07;;;;;;;11.63;81.52;96149.00;2089287;28;20357;-62
2023/06/06 04:36:06;;;;;;;10.00;6.50;;;;;;;11.69;81.18;96153.88;2089248;28;20052;-62
2023/06/06 04:37:07;;;;;;;9.57;6.03;;;;;;;11.66;80.69;96128.84;2089278;28;20041;-62
2023/06/06 04:38:09;;;;;;;7.55;6.20;;;;;;;11.72;80.36;96137.28;2088629;28;20053;-62
2023/06/06 04:39:10;;;;;;;7.65;5.93;;;;;;;11.84;80.31;96142.72;2089099;28;20064;-62
2023/06/06 04:40:11;;;;;;;8.82;6.15;;;;;;;11.91;80.73;96151.91;2088409;28;20044;-62
2023/06/06 04:41:14;;;;;;;7.82;6.28;;;;;;;11.95;80.01;96144.81;2080224;28;20466;-62
2023/06/06 04:42:15;;;;;;;9.93;5.90;;;;;;;11.95;80.16;96147.44;2080803;28;20144;-62
2023/06/06 04:43:23;;;;;;;9.35;6.18;;;;;;;12.01;80.00;96149.72;2088515;28;20055;-62
2023/06/06 04:44:25;;;;;;;7.90;6.00;;;;;;;12.05;79.31;96153.00;2089335;28;20125;-62
2023/06/06 04:45:27;;;;;;;10.05;5.90;;;;;;;12.07;79.28;96145.94;2089107;28;20059;-62
2023/06/06 04:46:29;;;;;;;8.90;6.22;;;;;;;12.06;78.39;96145.13;2089003;28;20040;-62
2023/06/06 04:47:31;;;;;;;9.98;6.20;;;;;;;12.05;78.47;96145.19;2081139;28;20412;-62
2023/06/06 04:48:32;;;;;;;9.90;6.50;;;;;;;12.14;78.67;96148.16;2088697;28;20064;-62
2023/06/06 04:49:38;;;;;;;9.15;6.50;;;;;;;12.12;78.25;96142.19;2097643;28;20053;-62
2023/06/06 04:50:41;;;;;;;8.40;5.75;;;;;;;12.26;78.34;96151.06;2089255;28;20048;-62
2023/06/06 04:51:44;;;;;;;8.65;6.20;;;;;;;12.33;77.99;96148.06;2089112;28;20071;-62
2023/06/06 04:52:45;;;;;;;10.70;6.35;;;;;;;12.36;77.39;96149.66;2097707;28;20060;-62
2023/06/06 04:53:46;;;;;;;8.23;5.70;;;;;;;12.37;77.12;96148.75;2097572;28;20464;-62